Terminal Aerodrome Forecast
Issued by NWS

Home | Current Version | Previous Version | Text Only | Print | Product List | Glossary Off
Versions: 1 2 3 4 5 6 7 8 9 10 11 12 13 14 15 16

049
FTUS44 KTSA 052325
TAFBVO
TAF
KBVO 052325Z 0600/0624 19003KT P6SM BKN120
     FM061300 34003KT P6SM SCT150
     FM061900 24005KT P6SM SKC=

USA.gov is the U.S. government's official web portal to all federal, state and local government web resources and services.